Newberry, SC

6:43 AM EDT on May 28, 2018 (GMT -0400)
Newberry

Weather History for KEOE - February, 2014

Change the Weather History Date:

Wednesday, February 26, 2014

  Actual Average (KFDW) Record (KFDW)
Temperature  
Mean Temperature 43 °F -  
Max Temperature 51 °F 59 °F 64 °F (2011)
Min Temperature 35 °F 33 °F 32 °F (2016)
Degree Days  
Heating Degree Days 22    
Moisture  
Dew Point 36 °F    
Average Humidity 79    
Maximum Humidity 100    
Minimum Humidity 50    
Precipitation  
Precipitation 0.01 in - - ()
Sea Level Pressure  
Sea Level Pressure 29.88 in    
Wind  
Wind Speed 5 mph (NE)    
Max Wind Speed 12 mph    
Max Gust Speed -    
Visibility 10 miles    
Events Rain    
Averages and records for this station are not official NWS values.
T = Trace of Precipitation, MM = Missing Value Source: NWS Daily Summary

Daily Weather History Graph

Daily Weather History Graph

Search for Another Location

Airport or City:

Astronomy

Feb. 26, 2014 Rise Set
Actual Time 6:59 AM EST 6:20 PM EST
Civil Twilight 6:33 AM EST 6:45 PM EST
Nautical Twilight 6:04 AM EST 7:14 PM EST
Astronomical Twilight 5:35 AM EST 7:43 PM EST
Moon 4:38 AM EST (2/26) 3:38 PM EST (2/26)
Length of Visible Light 12h 11m
Length of Day
11h 21m
Waning Crescent, 10% of the Moon is Illuminated
Feb 26
Waning Crescent
Mar 1
New
Mar 8
First Quarter
Mar 16
Full
Mar 23
Last Quarter

Hourly Weather History & Observations

Time (EST) Temp. Windchill Dew Point Humidity Pressure Visibility Wind Dir Wind Speed Gust Speed Precip Events Conditions
12:15 AM 51.8 °F - 44.6 °F 76% 29.92 in 10.0 mi SW 4.6 mph - N/A   Mostly Cloudy
12:35 AM 51.8 °F - 44.6 °F 76% 29.92 in 10.0 mi SW 4.6 mph - N/A   Scattered Clouds
12:55 AM 51.8 °F - 44.6 °F 76% 29.92 in 10.0 mi WSW 4.6 mph - N/A   Mostly Cloudy
1:15 AM 50.0 °F - 44.6 °F 82% 29.91 in 10.0 mi WSW 3.5 mph - N/A   Overcast
1:35 AM 50.0 °F - 44.6 °F 82% 29.91 in 10.0 mi WSW 4.6 mph - N/A   Mostly Cloudy
1:55 AM 48.2 °F - 44.6 °F 87% 29.90 in 10.0 mi SW 4.6 mph - N/A   Scattered Clouds
2:15 AM 46.4 °F 45.2 °F 44.6 °F 93% 29.90 in 10.0 mi West 3.5 mph - N/A   Clear
2:35 AM 44.6 °F 43.1 °F 44.6 °F 100% 29.89 in 10.0 mi North 3.5 mph - N/A   Clear
2:55 AM 44.6 °F - 42.8 °F 93% 29.88 in 10.0 mi Calm Calm - N/A   Clear
3:15 AM 44.6 °F - 44.6 °F 100% 29.87 in 10.0 mi Calm Calm - N/A   Mostly Cloudy
3:35 AM 42.8 °F 41.1 °F 42.8 °F 100% 29.87 in 10.0 mi North 3.5 mph - N/A   Overcast
3:55 AM 44.6 °F 42.2 °F 42.8 °F 93% 29.86 in 10.0 mi North 4.6 mph - N/A   Overcast
4:15 AM 44.6 °F 43.1 °F 42.8 °F 93% 29.87 in 10.0 mi NNW 3.5 mph - N/A   Overcast
4:35 AM 44.6 °F - 42.8 °F 93% 29.87 in 10.0 mi Calm Calm - N/A   Overcast
4:55 AM 42.8 °F 40.1 °F 42.8 °F 100% 29.86 in 10.0 mi North 4.6 mph - N/A   Overcast
5:15 AM 42.8 °F 40.1 °F 41.0 °F 93% 29.87 in 10.0 mi North 4.6 mph - N/A   Mostly Cloudy
5:35 AM 42.8 °F 39.3 °F 39.2 °F 87% 29.88 in 3.0 mi North 5.8 mph - N/A   Mostly Cloudy
5:55 AM 42.8 °F 40.1 °F 37.4 °F 81% 29.88 in 10.0 mi NNE 4.6 mph - N/A Rain Light Rain
6:15 AM 41.0 °F 38.0 °F 37.4 °F 87% 29.89 in 10.0 mi NNE 4.6 mph - N/A Rain Rain
6:35 AM 41.0 °F 38.0 °F 37.4 °F 87% 29.90 in 10.0 mi North 4.6 mph - N/A Rain Light Rain
6:55 AM 41.0 °F 37.1 °F 37.4 °F 87% 29.90 in 10.0 mi North 5.8 mph - N/A Rain Light Rain
7:15 AM 41.0 °F 37.1 °F 37.4 °F 87% 29.90 in 10.0 mi North 5.8 mph - N/A Rain Rain
7:35 AM 41.0 °F 37.1 °F 37.4 °F 87% 29.91 in 10.0 mi North 5.8 mph - 0.01 in Rain Rain
7:55 AM 41.0 °F 36.4 °F 37.4 °F 87% 29.91 in 10.0 mi North 6.9 mph - 0.01 in   Overcast
8:15 AM 41.0 °F 37.1 °F 37.4 °F 87% 29.93 in 10.0 mi North 5.8 mph - N/A   Overcast
8:35 AM 41.0 °F 35.8 °F 35.6 °F 81% 29.94 in 10.0 mi North 8.1 mph - N/A   Overcast
8:55 AM 41.0 °F 37.1 °F 33.8 °F 76% 29.94 in 10.0 mi North 5.8 mph - N/A   Light Drizzle
9:15 AM 41.0 °F 35.2 °F 33.8 °F 76% 29.94 in 10.0 mi North 9.2 mph - N/A   Light Drizzle
9:35 AM 41.0 °F 34.3 °F 32.0 °F 70% 29.94 in 10.0 mi NNE 11.5 mph - N/A   Overcast
9:55 AM 41.0 °F 35.2 °F 32.0 °F 70% 29.95 in 10.0 mi NNE 9.2 mph - N/A   Light Drizzle
10:15 AM 41.0 °F 34.7 °F 32.0 °F 70% 29.94 in 10.0 mi NNE 10.4 mph - N/A   Drizzle
10:35 AM 42.8 °F 38.0 °F 33.8 °F 70% 29.93 in 10.0 mi NE 8.1 mph - N/A   Light Drizzle
10:55 AM 42.8 °F 40.1 °F 32.0 °F 66% 29.93 in 10.0 mi NE 4.6 mph - N/A Rain Light Rain
11:15 AM 41.0 °F 38.0 °F 32.0 °F 70% 29.92 in 10.0 mi NE 4.6 mph - N/A   Drizzle
11:35 AM 41.0 °F 38.0 °F 33.8 °F 76% 29.91 in 10.0 mi NNE 4.6 mph - N/A   Mostly Cloudy
11:55 AM 41.0 °F 39.0 °F 33.8 °F 76% 29.91 in 10.0 mi NE 3.5 mph - N/A   Drizzle
12:15 PM 41.0 °F 37.1 °F 33.8 °F 76% 29.91 in 10.0 mi NNE 5.8 mph - N/A   Light Drizzle
12:35 PM 41.0 °F 39.0 °F 33.8 °F 76% 29.89 in 10.0 mi NNE 3.5 mph - N/A   Overcast
12:55 PM 42.8 °F 38.6 °F 33.8 °F 70% 29.88 in 10.0 mi NNE 6.9 mph - N/A   Overcast
1:15 PM 42.8 °F 38.6 °F 32.0 °F 66% 29.87 in 10.0 mi NNE 6.9 mph - N/A   Mostly Cloudy
1:35 PM 42.8 °F 38.0 °F 33.8 °F 70% 29.86 in 10.0 mi NNE 8.1 mph - N/A   Overcast
1:55 PM 42.8 °F 40.1 °F 32.0 °F 66% 29.85 in 10.0 mi NE 4.6 mph - N/A   Overcast
2:15 PM 44.6 °F 42.2 °F 32.0 °F 61% 29.83 in 10.0 mi East 4.6 mph - N/A   Overcast
2:35 PM 44.6 °F 40.7 °F 32.0 °F 61% 29.83 in 10.0 mi NNE 6.9 mph - N/A   Scattered Clouds
2:55 PM 46.4 °F 43.5 °F 32.0 °F 57% 29.83 in 10.0 mi NNE 5.8 mph - N/A   Mostly Cloudy
3:15 PM 46.4 °F 44.3 °F 32.0 °F 57% 29.83 in 10.0 mi East 4.6 mph - N/A   Overcast
3:35 PM 46.4 °F 45.2 °F 32.0 °F 57% 29.83 in 10.0 mi East 3.5 mph - N/A   Overcast
3:55 PM 46.4 °F 44.3 °F 30.2 °F 53% 29.83 in 10.0 mi East 4.6 mph - N/A   Overcast
4:15 PM 46.4 °F 44.3 °F 30.2 °F 53% 29.82 in 10.0 mi ENE 4.6 mph - N/A   Mostly Cloudy
4:35 PM 46.4 °F 45.2 °F 30.2 °F 53% 29.82 in 10.0 mi East 3.5 mph - N/A   Overcast
4:55 PM 48.2 °F - 30.2 °F 50% 29.81 in 10.0 mi SE 3.5 mph - N/A   Overcast
5:15 PM 46.4 °F 45.2 °F 32.0 °F 57% 29.81 in 10.0 mi SSE 3.5 mph - N/A   Scattered Clouds
5:35 PM 44.6 °F 41.4 °F 32.0 °F 61% 29.82 in 10.0 mi SSE 5.8 mph - N/A   Clear
5:55 PM 44.6 °F 42.2 °F 33.8 °F 66% 29.82 in 10.0 mi SSE 4.6 mph - N/A   Clear
6:15 PM 42.8 °F 40.1 °F 33.8 °F 70% 29.82 in 10.0 mi SSE 4.6 mph - N/A   Clear
6:35 PM 42.8 °F 40.1 °F 33.8 °F 70% 29.83 in 10.0 mi South 4.6 mph - N/A   Clear
6:55 PM 41.0 °F 39.0 °F 33.8 °F 76% 29.84 in 10.0 mi South 3.5 mph - N/A   Clear
7:15 PM 41.0 °F - 33.8 °F 76% 29.84 in 10.0 mi Calm Calm - N/A   Clear
7:35 PM 39.2 °F 37.0 °F 33.8 °F 81% 29.84 in 10.0 mi South 3.5 mph - N/A   Clear
7:55 PM 39.2 °F 37.0 °F 35.6 °F 87% 29.85 in 10.0 mi SSW 3.5 mph - N/A   Clear
8:15 PM 37.4 °F - 33.8 °F 87% 29.86 in 10.0 mi Calm Calm - N/A   Clear
8:35 PM 37.4 °F 34.9 °F 33.8 °F 87% 29.86 in 10.0 mi SSW 3.5 mph - N/A   Clear
8:55 PM 37.4 °F 34.9 °F 33.8 °F 87% 29.86 in 10.0 mi South 3.5 mph - N/A   Clear
9:15 PM 35.6 °F 31.7 °F 33.8 °F 93% 29.87 in 10.0 mi SSW 4.6 mph - N/A   Clear
9:35 PM 37.4 °F 32.8 °F 33.8 °F 87% 29.88 in 10.0 mi SSW 5.8 mph - N/A   Clear
9:55 PM 37.4 °F 33.8 °F 33.8 °F 87% 29.89 in 10.0 mi SSW 4.6 mph - N/A   Clear
10:15 PM 35.6 °F 32.8 °F 33.8 °F 93% 29.89 in 10.0 mi South 3.5 mph - N/A   Clear
10:35 PM 35.6 °F - 33.8 °F 93% 29.89 in 10.0 mi Calm Calm - N/A   Clear
10:55 PM 35.6 °F - 33.8 °F 93% 29.89 in 10.0 mi Calm Calm - N/A   Clear
11:15 PM 35.6 °F 31.7 °F 33.8 °F 93% 29.88 in 10.0 mi SSE 4.6 mph - N/A   Clear
11:35 PM 35.6 °F 30.7 °F 35.6 °F 100% 29.87 in 10.0 mi SSE 5.8 mph - N/A   Clear
11:55 PM 35.6 °F 31.7 °F 33.8 °F 93% 29.86 in 10.0 mi SSE 4.6 mph - N/A   Clear